sensor_id;sensor_type;location;lat;lon;timestamp;temperature;humidity
54260;DHT22;40172;53.022;7.012;2022-10-30T00:00:18;12.70;99.90
54260;DHT22;40172;53.022;7.012;2022-10-30T00:02:46;12.60;99.90
54260;DHT22;40172;53.022;7.012;2022-10-30T00:05:12;12.70;99.90
54260;DHT22;40172;53.022;7.012;2022-10-30T00:07:37;12.60;99.90
54260;DHT22;40172;53.022;7.012;2022-10-30T00:10:03;12.70;99.90
54260;DHT22;40172;53.022;7.012;2022-10-30T00:12:29;12.60;99.90
54260;DHT22;40172;53.022;7.012;2022-10-30T00:14:54;12.70;99.90
54260;DHT22;40172;53.022;7.012;2022-10-30T00:17:20;12.60;99.90
54260;DHT22;40172;53.022;7.012;2022-10-30T00:19:45;12.60;99.90
54260;DHT22;40172;53.022;7.012;2022-10-30T00:22:11;12.60;99.90
54260;DHT22;40172;53.022;7.012;2022-10-30T00:24:37;12.60;99.90
54260;DHT22;40172;53.022;7.012;2022-10-30T00:27:02;12.60;99.90
54260;DHT22;40172;53.022;7.012;2022-10-30T00:29:28;12.60;99.90
54260;DHT22;40172;53.022;7.012;2022-10-30T00:31:53;12.60;99.90
54260;DHT22;40172;53.022;7.012;2022-10-30T00:34:19;12.60;99.90
54260;DHT22;40172;53.022;7.012;2022-10-30T00:36:45;12.60;99.90
54260;DHT22;40172;53.022;7.012;2022-10-30T00:39:10;12.60;99.90
54260;DHT22;40172;53.022;7.012;2022-10-30T00:41:36;12.80;99.90
54260;DHT22;40172;53.022;7.012;2022-10-30T00:50:11;12.80;99.90
54260;DHT22;40172;53.022;7.012;2022-10-30T00:52:46;12.80;99.90
54260;DHT22;40172;53.022;7.012;2022-10-30T00:55:18;12.90;99.90
54260;DHT22;40172;53.022;7.012;2022-10-30T00:57:46;12.90;99.90
54260;DHT22;40172;53.022;7.012;2022-10-30T01:00:14;13.00;99.90
54260;DHT22;40172;53.022;7.012;2022-10-30T01:02:41;13.00;99.90
54260;DHT22;40172;53.022;7.012;2022-10-30T01:05:08;13.00;99.90
54260;DHT22;40172;53.022;7.012;2022-10-30T01:07:35;13.10;99.90
54260;DHT22;40172;53.022;7.012;2022-10-30T01:10:00;12.90;99.90
54260;DHT22;40172;53.022;7.012;2022-10-30T01:12:26;12.90;99.90
54260;DHT22;40172;53.022;7.012;2022-10-30T01:14:54;12.80;99.90
54260;DHT22;40172;53.022;7.012;2022-10-30T01:26:06;12.50;99.90
54260;DHT22;40172;53.022;7.012;2022-10-30T01:32:24;12.40;99.90
54260;DHT22;40172;53.022;7.012;2022-10-30T01:35:01;12.50;99.90
54260;DHT22;40172;53.022;7.012;2022-10-30T01:40:09;12.50;99.90
54260;DHT22;40172;53.022;7.012;2022-10-30T01:42:48;12.50;99.90
54260;DHT22;40172;53.022;7.012;2022-10-30T01:45:22;12.60;99.90
54260;DHT22;40172;53.022;7.012;2022-10-30T01:53:47;12.70;99.90
54260;DHT22;40172;53.022;7.012;2022-10-30T01:58:56;12.70;99.90
54260;DHT22;40172;53.022;7.012;2022-10-30T02:01:25;12.60;99.90
54260;DHT22;40172;53.022;7.012;2022-10-30T02:03:52;12.60;99.90
54260;DHT22;40172;53.022;7.012;2022-10-30T02:06:18;12.70;99.90
54260;DHT22;40172;53.022;7.012;2022-10-30T02:08:44;12.70;99.90
54260;DHT22;40172;53.022;7.012;2022-10-30T02:11:09;12.80;99.90
54260;DHT22;40172;53.022;7.012;2022-10-30T02:13:36;12.70;99.90
54260;DHT22;40172;53.022;7.012;2022-10-30T02:16:02;12.80;99.90
54260;DHT22;40172;53.022;7.012;2022-10-30T02:18:28;12.80;99.90
54260;DHT22;40172;53.022;7.012;2022-10-30T02:20:54;12.80;99.90
54260;DHT22;40172;53.022;7.012;2022-10-30T02:23:20;12.80;99.90
54260;DHT22;40172;53.022;7.012;2022-10-30T02:25:46;12.50;99.90
54260;DHT22;40172;53.022;7.012;2022-10-30T02:28:12;12.50;99.90
54260;DHT22;40172;53.022;7.012;2022-10-30T02:30:38;12.40;99.90
54260;DHT22;40172;53.022;7.012;2022-10-30T02:33:05;12.60;99.90
54260;DHT22;40172;53.022;7.012;2022-10-30T02:35:30;12.60;99.90
54260;DHT22;40172;53.022;7.012;2022-10-30T02:37:56;12.60;99.90
54260;DHT22;40172;53.022;7.012;2022-10-30T02:40:21;12.60;99.90
54260;DHT22;40172;53.022;7.012;2022-10-30T02:42:51;12.70;99.90
54260;DHT22;40172;53.022;7.012;2022-10-30T02:45:18;12.60;99.90
54260;DHT22;40172;53.022;7.012;2022-10-30T02:47:44;12.70;99.90
54260;DHT22;40172;53.022;7.012;2022-10-30T02:50:09;12.70;99.90
54260;DHT22;40172;53.022;7.012;2022-10-30T02:52:35;12.50;99.90
54260;DHT22;40172;53.022;7.012;2022-10-30T02:55:00;12.40;99.90
54260;DHT22;40172;53.022;7.012;2022-10-30T02:57:26;12.40;99.90
54260;DHT22;40172;53.022;7.012;2022-10-30T02:59:51;12.40;99.90
54260;DHT22;40172;53.022;7.012;2022-10-30T03:02:17;12.40;99.90
54260;DHT22;40172;53.022;7.012;2022-10-30T03:04:42;12.40;99.90
54260;DHT22;40172;53.022;7.012;2022-10-30T03:07:08;12.30;99.90
54260;DHT22;40172;53.022;7.012;2022-10-30T03:09:33;12.20;99.90
54260;DHT22;40172;53.022;7.012;2022-10-30T03:11:59;12.10;99.90
54260;DHT22;40172;53.022;7.012;2022-10-30T03:14:25;12.20;99.90
54260;DHT22;40172;53.022;7.012;2022-10-30T03:16:51;12.10;99.90
54260;DHT22;40172;53.022;7.012;2022-10-30T03:19:19;12.10;99.90
54260;DHT22;40172;53.022;7.012;2022-10-30T03:21:45;12.00;99.90
54260;DHT22;40172;53.022;7.012;2022-10-30T03:24:10;12.10;99.90
54260;DHT22;40172;53.022;7.012;2022-10-30T03:26:36;12.10;99.90
54260;DHT22;40172;53.022;7.012;2022-10-30T03:29:01;12.00;99.90
54260;DHT22;40172;53.022;7.012;2022-10-30T03:31:29;12.00;99.90
54260;DHT22;40172;53.022;7.012;2022-10-30T03:33:56;12.00;99.90
54260;DHT22;40172;53.022;7.012;2022-10-30T03:36:22;12.00;99.90
54260;DHT22;40172;53.022;7.012;2022-10-30T03:38:49;12.00;99.90
54260;DHT22;40172;53.022;7.012;2022-10-30T03:41:14;12.00;99.90
54260;DHT22;40172;53.022;7.012;2022-10-30T03:43:40;12.00;99.90
54260;DHT22;40172;53.022;7.012;2022-10-30T03:46:05;12.00;99.90
54260;DHT22;40172;53.022;7.012;2022-10-30T03:48:31;12.10;99.90
54260;DHT22;40172;53.022;7.012;2022-10-30T03:50:58;12.70;99.90
54260;DHT22;40172;53.022;7.012;2022-10-30T03:53:25;12.20;99.90
54260;DHT22;40172;53.022;7.012;2022-10-30T03:56:01;12.20;99.90
54260;DHT22;40172;53.022;7.012;2022-10-30T03:58:28;12.20;99.90
54260;DHT22;40172;53.022;7.012;2022-10-30T04:00:54;12.10;99.90
54260;DHT22;40172;53.022;7.012;2022-10-30T04:03:19;12.30;99.90
54260;DHT22;40172;53.022;7.012;2022-10-30T04:05:45;12.20;99.90
54260;DHT22;40172;53.022;7.012;2022-10-30T04:08:12;12.20;99.90
54260;DHT22;40172;53.022;7.012;2022-10-30T04:10:42;12.20;99.90
54260;DHT22;40172;53.022;7.012;2022-10-30T04:13:09;12.10;99.90
54260;DHT22;40172;53.022;7.012;2022-10-30T04:15:35;12.20;99.90
54260;DHT22;40172;53.022;7.012;2022-10-30T04:18:02;12.10;99.90
54260;DHT22;40172;53.022;7.012;2022-10-30T04:20:28;12.10;99.90
54260;DHT22;40172;53.022;7.012;2022-10-30T04:22:59;12.10;99.90
54260;DHT22;40172;53.022;7.012;2022-10-30T04:25:25;12.10;99.90
54260;DHT22;40172;53.022;7.012;2022-10-30T04:27:51;12.10;99.90
54260;DHT22;40172;53.022;7.012;2022-10-30T04:30:18;12.10;99.90
54260;DHT22;40172;53.022;7.012;2022-10-30T04:32:48;12.10;99.90
54260;DHT22;40172;53.022;7.012;2022-10-30T04:35:15;12.20;99.90
54260;DHT22;40172;53.022;7.012;2022-10-30T04:37:42;12.20;99.90
54260;DHT22;40172;53.022;7.012;2022-10-30T04:40:08;12.30;99.90
54260;DHT22;40172;53.022;7.012;2022-10-30T04:42:34;12.30;99.90
54260;DHT22;40172;53.022;7.012;2022-10-30T04:44:59;12.40;99.90
54260;DHT22;40172;53.022;7.012;2022-10-30T04:47:27;12.40;99.90
54260;DHT22;40172;53.022;7.012;2022-10-30T04:49:53;12.40;99.90
54260;DHT22;40172;53.022;7.012;2022-10-30T04:52:18;12.40;99.90
54260;DHT22;40172;53.022;7.012;2022-10-30T04:54:44;12.50;99.90
54260;DHT22;40172;53.022;7.012;2022-10-30T04:57:10;12.40;99.90
54260;DHT22;40172;53.022;7.012;2022-10-30T04:59:35;12.50;99.90
54260;DHT22;40172;53.022;7.012;2022-10-30T05:02:01;12.50;99.90
54260;DHT22;40172;53.022;7.012;2022-10-30T05:04:26;12.60;99.90
54260;DHT22;40172;53.022;7.012;2022-10-30T05:06:52;12.50;99.90
54260;DHT22;40172;53.022;7.012;2022-10-30T05:09:17;12.50;99.90
54260;DHT22;40172;53.022;7.012;2022-10-30T05:11:43;12.50;99.90
54260;DHT22;40172;53.022;7.012;2022-10-30T05:14:08;12.50;99.90
54260;DHT22;40172;53.022;7.012;2022-10-30T05:16:34;12.40;99.90
54260;DHT22;40172;53.022;7.012;2022-10-30T05:18:59;12.50;99.90
54260;DHT22;40172;53.022;7.012;2022-10-30T05:21:25;12.40;99.90
54260;DHT22;40172;53.022;7.012;2022-10-30T05:23:51;12.30;99.90
54260;DHT22;40172;53.022;7.012;2022-10-30T05:26:16;12.30;99.90
54260;DHT22;40172;53.022;7.012;2022-10-30T05:28:42;12.20;99.90
54260;DHT22;40172;53.022;7.012;2022-10-30T05:31:07;12.30;99.90
54260;DHT22;40172;53.022;7.012;2022-10-30T05:33:33;12.30;99.90
54260;DHT22;40172;53.022;7.012;2022-10-30T05:35:58;12.30;99.90
54260;DHT22;40172;53.022;7.012;2022-10-30T05:38:24;12.20;99.90
54260;DHT22;40172;53.022;7.012;2022-10-30T05:40:49;12.20;99.90
54260;DHT22;40172;53.022;7.012;2022-10-30T05:43:15;12.20;99.90
54260;DHT22;40172;53.022;7.012;2022-10-30T05:45:41;12.10;99.90
54260;DHT22;40172;53.022;7.012;2022-10-30T05:48:07;12.10;99.90
54260;DHT22;40172;53.022;7.012;2022-10-30T05:50:33;12.20;99.90
54260;DHT22;40172;53.022;7.012;2022-10-30T05:53:00;12.10;99.90
54260;DHT22;40172;53.022;7.012;2022-10-30T05:55:27;12.10;99.90
54260;DHT22;40172;53.022;7.012;2022-10-30T05:58:00;12.00;99.90
54260;DHT22;40172;53.022;7.012;2022-10-30T06:00:27;12.00;99.90
54260;DHT22;40172;53.022;7.012;2022-10-30T06:03:00;11.90;99.90
54260;DHT22;40172;53.022;7.012;2022-10-30T06:05:26;11.90;99.90
54260;DHT22;40172;53.022;7.012;2022-10-30T06:07:54;11.90;99.90
54260;DHT22;40172;53.022;7.012;2022-10-30T06:10:21;12.00;99.90
54260;DHT22;40172;53.022;7.012;2022-10-30T06:15:19;11.90;99.90
54260;DHT22;40172;53.022;7.012;2022-10-30T06:17:44;11.90;99.90
54260;DHT22;40172;53.022;7.012;2022-10-30T06:20:10;11.90;99.90
54260;DHT22;40172;53.022;7.012;2022-10-30T06:22:36;11.90;99.90
54260;DHT22;40172;53.022;7.012;2022-10-30T06:25:01;11.90;99.90
54260;DHT22;40172;53.022;7.012;2022-10-30T06:27:27;11.80;99.90
54260;DHT22;40172;53.022;7.012;2022-10-30T06:29:52;11.90;99.90
54260;DHT22;40172;53.022;7.012;2022-10-30T06:32:19;11.80;99.90
54260;DHT22;40172;53.022;7.012;2022-10-30T06:34:45;11.80;99.90
54260;DHT22;40172;53.022;7.012;2022-10-30T06:37:11;11.80;99.90
54260;DHT22;40172;53.022;7.012;2022-10-30T06:39:36;11.80;99.90
54260;DHT22;40172;53.022;7.012;2022-10-30T06:42:02;11.80;99.90
54260;DHT22;40172;53.022;7.012;2022-10-30T06:44:27;11.80;99.90
54260;DHT22;40172;53.022;7.012;2022-10-30T06:46:53;11.90;99.90
54260;DHT22;40172;53.022;7.012;2022-10-30T06:49:19;11.90;99.90
54260;DHT22;40172;53.022;7.012;2022-10-30T06:51:46;11.80;99.90
54260;DHT22;40172;53.022;7.012;2022-10-30T06:54:12;11.90;99.90
54260;DHT22;40172;53.022;7.012;2022-10-30T06:56:37;11.80;99.90
54260;DHT22;40172;53.022;7.012;2022-10-30T06:59:03;11.80;99.90
54260;DHT22;40172;53.022;7.012;2022-10-30T07:01:28;11.80;99.90
54260;DHT22;40172;53.022;7.012;2022-10-30T07:03:54;11.80;99.90
54260;DHT22;40172;53.022;7.012;2022-10-30T07:06:19;11.80;99.90
54260;DHT22;40172;53.022;7.012;2022-10-30T07:08:45;12.00;99.90
54260;DHT22;40172;53.022;7.012;2022-10-30T07:11:11;12.10;99.90
54260;DHT22;40172;53.022;7.012;2022-10-30T07:13:37;12.00;99.90
54260;DHT22;40172;53.022;7.012;2022-10-30T07:16:02;12.10;99.90
54260;DHT22;40172;53.022;7.012;2022-10-30T07:18:28;12.20;99.90
54260;DHT22;40172;53.022;7.012;2022-10-30T07:20:54;12.30;99.90
54260;DHT22;40172;53.022;7.012;2022-10-30T07:23:22;12.30;99.90
54260;DHT22;40172;53.022;7.012;2022-10-30T07:25:48;12.40;99.90
54260;DHT22;40172;53.022;7.012;2022-10-30T07:28:14;12.30;99.90
54260;DHT22;40172;53.022;7.012;2022-10-30T07:30:39;12.50;99.90
54260;DHT22;40172;53.022;7.012;2022-10-30T07:33:05;12.40;99.90
54260;DHT22;40172;53.022;7.012;2022-10-30T07:35:33;12.60;99.90
54260;DHT22;40172;53.022;7.012;2022-10-30T07:38:10;12.60;99.90
54260;DHT22;40172;53.022;7.012;2022-10-30T07:40:37;12.60;99.90
54260;DHT22;40172;53.022;7.012;2022-10-30T07:43:03;12.70;99.90
54260;DHT22;40172;53.022;7.012;2022-10-30T07:45:31;12.60;99.90
54260;DHT22;40172;53.022;7.012;2022-10-30T07:47:57;12.70;99.90
54260;DHT22;40172;53.022;7.012;2022-10-30T07:50:22;12.70;99.90
54260;DHT22;40172;53.022;7.012;2022-10-30T07:52:48;12.80;99.90
54260;DHT22;40172;53.022;7.012;2022-10-30T07:55:14;12.90;99.90
54260;DHT22;40172;53.022;7.012;2022-10-30T07:57:41;12.90;99.90
54260;DHT22;40172;53.022;7.012;2022-10-30T08:00:09;12.90;99.90
54260;DHT22;40172;53.022;7.012;2022-10-30T08:02:35;13.10;99.90
54260;DHT22;40172;53.022;7.012;2022-10-30T08:05:02;13.50;99.90
54260;DHT22;40172;53.022;7.012;2022-10-30T08:07:32;13.30;99.90
54260;DHT22;40172;53.022;7.012;2022-10-30T08:09:58;13.30;99.90
54260;DHT22;40172;53.022;7.012;2022-10-30T08:12:24;13.30;99.90
54260;DHT22;40172;53.022;7.012;2022-10-30T08:14:51;13.40;99.90
54260;DHT22;40172;53.022;7.012;2022-10-30T08:17:17;13.50;99.90
54260;DHT22;40172;53.022;7.012;2022-10-30T08:19:42;13.60;99.90
54260;DHT22;40172;53.022;7.012;2022-10-30T08:22:09;13.60;99.90
54260;DHT22;40172;53.022;7.012;2022-10-30T08:24:35;13.60;99.90
54260;DHT22;40172;53.022;7.012;2022-10-30T08:27:01;13.70;99.90
54260;DHT22;40172;53.022;7.012;2022-10-30T08:29:26;13.70;99.90
54260;DHT22;40172;53.022;7.012;2022-10-30T08:31:52;13.90;99.90
54260;DHT22;40172;53.022;7.012;2022-10-30T08:34:20;13.90;99.90
54260;DHT22;40172;53.022;7.012;2022-10-30T08:36:50;14.00;99.90
54260;DHT22;40172;53.022;7.012;2022-10-30T08:39:16;14.00;99.90
54260;DHT22;40172;53.022;7.012;2022-10-30T08:41:42;14.20;99.90
54260;DHT22;40172;53.022;7.012;2022-10-30T08:44:08;14.20;99.90
54260;DHT22;40172;53.022;7.012;2022-10-30T08:46:33;14.30;99.90
54260;DHT22;40172;53.022;7.012;2022-10-30T08:48:59;14.70;99.90
54260;DHT22;40172;53.022;7.012;2022-10-30T08:51:25;14.40;99.90
54260;DHT22;40172;53.022;7.012;2022-10-30T08:53:51;14.50;99.90
54260;DHT22;40172;53.022;7.012;2022-10-30T08:56:17;14.50;99.90
54260;DHT22;40172;53.022;7.012;2022-10-30T08:58:42;14.70;99.90
54260;DHT22;40172;53.022;7.012;2022-10-30T09:01:08;14.70;99.90
54260;DHT22;40172;53.022;7.012;2022-10-30T09:03:33;14.70;99.90
54260;DHT22;40172;53.022;7.012;2022-10-30T09:06:00;14.90;99.90
54260;DHT22;40172;53.022;7.012;2022-10-30T09:08:27;14.90;99.90
54260;DHT22;40172;53.022;7.012;2022-10-30T09:10:56;15.10;99.90
54260;DHT22;40172;53.022;7.012;2022-10-30T09:13:23;15.00;99.90
54260;DHT22;40172;53.022;7.012;2022-10-30T09:15:49;15.20;99.90
54260;DHT22;40172;53.022;7.012;2022-10-30T09:18:15;15.30;99.90
54260;DHT22;40172;53.022;7.012;2022-10-30T09:20:41;15.30;99.90
54260;DHT22;40172;53.022;7.012;2022-10-30T09:23:06;15.30;99.90
54260;DHT22;40172;53.022;7.012;2022-10-30T09:25:34;15.40;99.90
54260;DHT22;40172;53.022;7.012;2022-10-30T09:28:00;14.80;99.90
54260;DHT22;40172;53.022;7.012;2022-10-30T09:30:26;15.50;99.90
54260;DHT22;40172;53.022;7.012;2022-10-30T09:33:00;15.50;99.90
54260;DHT22;40172;53.022;7.012;2022-10-30T09:35:31;15.60;99.90
54260;DHT22;40172;53.022;7.012;2022-10-30T09:37:57;15.60;99.90
54260;DHT22;40172;53.022;7.012;2022-10-30T09:40:31;15.70;99.90
54260;DHT22;40172;53.022;7.012;2022-10-30T09:51:42;15.90;99.90
54260;DHT22;40172;53.022;7.012;2022-10-30T09:54:26;16.00;99.90
54260;DHT22;40172;53.022;7.012;2022-10-30T09:57:18;16.10;99.90
54260;DHT22;40172;53.022;7.012;2022-10-30T09:59:53;16.10;99.90
54260;DHT22;40172;53.022;7.012;2022-10-30T10:03:24;16.20;99.90
54260;DHT22;40172;53.022;7.012;2022-10-30T10:08:17;16.40;99.90
54260;DHT22;40172;53.022;7.012;2022-10-30T10:11:12;16.40;99.90
54260;DHT22;40172;53.022;7.012;2022-10-30T10:13:47;16.50;99.90
54260;DHT22;40172;53.022;7.012;2022-10-30T10:16:24;16.60;99.90
54260;DHT22;40172;53.022;7.012;2022-10-30T10:21:54;16.70;99.90
54260;DHT22;40172;53.022;7.012;2022-10-30T10:24:23;16.80;99.90
54260;DHT22;40172;53.022;7.012;2022-10-30T10:29:45;17.00;99.90
54260;DHT22;40172;53.022;7.012;2022-10-30T10:36:04;17.50;99.90
54260;DHT22;40172;53.022;7.012;2022-10-30T10:52:39;17.90;99.90
54260;DHT22;40172;53.022;7.012;2022-10-30T10:55:17;18.00;99.90
54260;DHT22;40172;53.022;7.012;2022-10-30T10:57:44;18.10;99.90
54260;DHT22;40172;53.022;7.012;2022-10-30T11:00:15;18.10;99.90
54260;DHT22;40172;53.022;7.012;2022-10-30T11:02:50;18.20;99.90
54260;DHT22;40172;53.022;7.012;2022-10-30T11:05:29;18.30;99.90
54260;DHT22;40172;53.022;7.012;2022-10-30T11:08:10;18.30;99.90
54260;DHT22;40172;53.022;7.012;2022-10-30T11:10:39;18.40;99.90
54260;DHT22;40172;53.022;7.012;2022-10-30T11:13:04;18.40;99.90
54260;DHT22;40172;53.022;7.012;2022-10-30T11:15:32;18.50;99.90
54260;DHT22;40172;53.022;7.012;2022-10-30T11:18:08;18.60;99.90
54260;DHT22;40172;53.022;7.012;2022-10-30T11:23:38;18.70;99.90
54260;DHT22;40172;53.022;7.012;2022-10-30T11:28:48;18.80;99.90
54260;DHT22;40172;53.022;7.012;2022-10-30T11:31:40;18.90;99.90
54260;DHT22;40172;53.022;7.012;2022-10-30T11:36:46;19.00;99.90
54260;DHT22;40172;53.022;7.012;2022-10-30T11:39:26;19.00;99.90
54260;DHT22;40172;53.022;7.012;2022-10-30T11:44:36;19.00;99.90
54260;DHT22;40172;53.022;7.012;2022-10-30T11:47:04;19.10;99.90
54260;DHT22;40172;53.022;7.012;2022-10-30T11:49:45;19.10;99.90
54260;DHT22;40172;53.022;7.012;2022-10-30T11:52:14;19.10;99.90
54260;DHT22;40172;53.022;7.012;2022-10-30T11:54:43;19.30;99.90
54260;DHT22;40172;53.022;7.012;2022-10-30T11:59:47;19.50;99.90
54260;DHT22;40172;53.022;7.012;2022-10-30T12:02:27;19.50;99.90
54260;DHT22;40172;53.022;7.012;2022-10-30T12:05:00;19.60;99.90
54260;DHT22;40172;53.022;7.012;2022-10-30T12:07:30;19.60;99.90
54260;DHT22;40172;53.022;7.012;2022-10-30T12:09:56;19.70;99.90
54260;DHT22;40172;53.022;7.012;2022-10-30T12:12:27;19.70;99.90
54260;DHT22;40172;53.022;7.012;2022-10-30T12:14:54;19.80;99.90
54260;DHT22;40172;53.022;7.012;2022-10-30T12:17:20;19.80;99.90
54260;DHT22;40172;53.022;7.012;2022-10-30T12:19:49;19.80;99.90
54260;DHT22;40172;53.022;7.012;2022-10-30T12:22:28;19.80;99.90
54260;DHT22;40172;53.022;7.012;2022-10-30T12:24:56;19.80;99.90
54260;DHT22;40172;53.022;7.012;2022-10-30T12:27:22;19.80;99.90
54260;DHT22;40172;53.022;7.012;2022-10-30T12:30:06;19.90;99.90
54260;DHT22;40172;53.022;7.012;2022-10-30T12:35:27;20.10;99.90
54260;DHT22;40172;53.022;7.012;2022-10-30T12:37:56;20.10;99.90
54260;DHT22;40172;53.022;7.012;2022-10-30T12:40:29;20.20;99.90
54260;DHT22;40172;53.022;7.012;2022-10-30T12:43:04;20.20;99.90
54260;DHT22;40172;53.022;7.012;2022-10-30T12:45:45;20.20;99.90
54260;DHT22;40172;53.022;7.012;2022-10-30T12:48:14;20.20;99.90
54260;DHT22;40172;53.022;7.012;2022-10-30T12:51:05;20.20;99.90
54260;DHT22;40172;53.022;7.012;2022-10-30T12:53:42;20.20;99.90
54260;DHT22;40172;53.022;7.012;2022-10-30T12:56:27;20.20;99.90
54260;DHT22;40172;53.022;7.012;2022-10-30T12:59:30;20.20;99.90
54260;DHT22;40172;53.022;7.012;2022-10-30T13:02:10;20.20;99.90
54260;DHT22;40172;53.022;7.012;2022-10-30T13:04:40;20.20;99.90
54260;DHT22;40172;53.022;7.012;2022-10-30T13:12:39;20.10;99.90
54260;DHT22;40172;53.022;7.012;2022-10-30T13:15:20;20.00;99.90
54260;DHT22;40172;53.022;7.012;2022-10-30T13:17:46;20.00;99.90
54260;DHT22;40172;53.022;7.012;2022-10-30T13:20:13;20.10;99.90
54260;DHT22;40172;53.022;7.012;2022-10-30T13:25:55;20.20;99.90
54260;DHT22;40172;53.022;7.012;2022-10-30T13:28:42;20.30;99.90
54260;DHT22;40172;53.022;7.012;2022-10-30T13:31:33;20.40;99.90
54260;DHT22;40172;53.022;7.012;2022-10-30T13:34:25;20.60;99.90
54260;DHT22;40172;53.022;7.012;2022-10-30T13:37:04;20.60;99.90
54260;DHT22;40172;53.022;7.012;2022-10-30T13:39:56;20.70;99.90
54260;DHT22;40172;53.022;7.012;2022-10-30T13:42:53;20.70;99.90
54260;DHT22;40172;53.022;7.012;2022-10-30T13:54:11;20.70;99.90
54260;DHT22;40172;53.022;7.012;2022-10-30T13:56:38;20.60;99.90
54260;DHT22;40172;53.022;7.012;2022-10-30T13:59:19;20.60;99.90
54260;DHT22;40172;53.022;7.012;2022-10-30T14:01:59;20.60;99.90
54260;DHT22;40172;53.022;7.012;2022-10-30T14:04:35;20.60;99.90
54260;DHT22;40172;53.022;7.012;2022-10-30T14:07:33;20.50;99.90
54260;DHT22;40172;53.022;7.012;2022-10-30T14:10:14;20.40;99.90
54260;DHT22;40172;53.022;7.012;2022-10-30T14:15:30;20.30;99.90
54260;DHT22;40172;53.022;7.012;2022-10-30T14:26:11;20.00;99.90
54260;DHT22;40172;53.022;7.012;2022-10-30T14:28:40;19.90;99.90
54260;DHT22;40172;53.022;7.012;2022-10-30T14:31:08;19.80;99.90
54260;DHT22;40172;53.022;7.012;2022-10-30T14:33:51;19.80;99.90
54260;DHT22;40172;53.022;7.012;2022-10-30T14:36:20;19.70;99.90
54260;DHT22;40172;53.022;7.012;2022-10-30T14:39:25;19.60;99.90
54260;DHT22;40172;53.022;7.012;2022-10-30T14:42:27;19.50;99.90
54260;DHT22;40172;53.022;7.012;2022-10-30T14:47:51;19.40;99.90
54260;DHT22;40172;53.022;7.012;2022-10-30T14:50:26;19.30;99.90
54260;DHT22;40172;53.022;7.012;2022-10-30T14:53:11;19.20;99.90
54260;DHT22;40172;53.022;7.012;2022-10-30T14:55:59;19.20;99.90
54260;DHT22;40172;53.022;7.012;2022-10-30T14:58:29;19.20;99.90
54260;DHT22;40172;53.022;7.012;2022-10-30T15:04:34;19.20;99.90
54260;DHT22;40172;53.022;7.012;2022-10-30T15:09:26;19.10;99.90
54260;DHT22;40172;53.022;7.012;2022-10-30T15:14:45;19.10;99.90
54260;DHT22;40172;53.022;7.012;2022-10-30T15:17:34;19.00;99.90
54260;DHT22;40172;53.022;7.012;2022-10-30T15:20:04;19.00;99.90
54260;DHT22;40172;53.022;7.012;2022-10-30T15:22:32;18.90;99.90
54260;DHT22;40172;53.022;7.012;2022-10-30T15:24:59;18.80;99.90
54260;DHT22;40172;53.022;7.012;2022-10-30T15:27:25;18.70;99.90
54260;DHT22;40172;53.022;7.012;2022-10-30T15:29:58;18.70;99.90
54260;DHT22;40172;53.022;7.012;2022-10-30T15:32:24;18.60;99.90
54260;DHT22;40172;53.022;7.012;2022-10-30T15:34:57;18.50;99.90
54260;DHT22;40172;53.022;7.012;2022-10-30T15:37:25;18.50;99.90
54260;DHT22;40172;53.022;7.012;2022-10-30T15:42:38;18.30;99.90
54260;DHT22;40172;53.022;7.012;2022-10-30T15:45:04;18.20;99.90
54260;DHT22;40172;53.022;7.012;2022-10-30T15:47:30;18.10;99.90
54260;DHT22;40172;53.022;7.012;2022-10-30T15:49:56;18.00;99.90
54260;DHT22;40172;53.022;7.012;2022-10-30T15:52:24;17.80;99.90
54260;DHT22;40172;53.022;7.012;2022-10-30T15:54:58;17.70;99.90
54260;DHT22;40172;53.022;7.012;2022-10-30T15:57:35;17.50;99.90
54260;DHT22;40172;53.022;7.012;2022-10-30T16:00:16;17.40;99.90
54260;DHT22;40172;53.022;7.012;2022-10-30T16:02:46;17.30;99.90
54260;DHT22;40172;53.022;7.012;2022-10-30T16:05:21;17.10;99.90
54260;DHT22;40172;53.022;7.012;2022-10-30T16:07:47;17.10;99.90
54260;DHT22;40172;53.022;7.012;2022-10-30T16:10:15;16.90;99.90
54260;DHT22;40172;53.022;7.012;2022-10-30T16:12:41;16.80;99.90
54260;DHT22;40172;53.022;7.012;2022-10-30T16:15:14;16.70;99.90
54260;DHT22;40172;53.022;7.012;2022-10-30T16:17:42;16.70;99.90
54260;DHT22;40172;53.022;7.012;2022-10-30T16:20:08;16.50;99.90
54260;DHT22;40172;53.022;7.012;2022-10-30T16:22:36;16.50;99.90
54260;DHT22;40172;53.022;7.012;2022-10-30T16:25:05;16.40;99.90
54260;DHT22;40172;53.022;7.012;2022-10-30T16:27:31;16.30;99.90
54260;DHT22;40172;53.022;7.012;2022-10-30T16:29:58;16.20;99.90
54260;DHT22;40172;53.022;7.012;2022-10-30T16:32:28;15.90;99.90
54260;DHT22;40172;53.022;7.012;2022-10-30T16:34:59;16.00;99.90
54260;DHT22;40172;53.022;7.012;2022-10-30T16:37:38;16.00;99.90
54260;DHT22;40172;53.022;7.012;2022-10-30T16:40:14;16.00;99.90
54260;DHT22;40172;53.022;7.012;2022-10-30T16:42:40;15.90;99.90
54260;DHT22;40172;53.022;7.012;2022-10-30T16:47:37;15.80;99.90
54260;DHT22;40172;53.022;7.012;2022-10-30T16:50:04;15.80;99.90
54260;DHT22;40172;53.022;7.012;2022-10-30T16:52:33;15.70;99.90
54260;DHT22;40172;53.022;7.012;2022-10-30T16:55:08;15.70;99.90
54260;DHT22;40172;53.022;7.012;2022-10-30T16:57:41;15.60;99.90
54260;DHT22;40172;53.022;7.012;2022-10-30T17:00:27;15.60;99.90
54260;DHT22;40172;53.022;7.012;2022-10-30T17:02:55;15.60;99.90
54260;DHT22;40172;53.022;7.012;2022-10-30T17:05:22;15.40;99.90
54260;DHT22;40172;53.022;7.012;2022-10-30T17:10:54;15.30;99.90
54260;DHT22;40172;53.022;7.012;2022-10-30T17:13:56;15.20;99.90
54260;DHT22;40172;53.022;7.012;2022-10-30T17:16:24;15.20;99.90
54260;DHT22;40172;53.022;7.012;2022-10-30T17:18:55;15.10;99.90
54260;DHT22;40172;53.022;7.012;2022-10-30T17:21:41;15.20;99.90
54260;DHT22;40172;53.022;7.012;2022-10-30T17:24:19;15.10;99.90
54260;DHT22;40172;53.022;7.012;2022-10-30T17:26:55;15.10;99.90
54260;DHT22;40172;53.022;7.012;2022-10-30T17:32:26;15.10;99.90
54260;DHT22;40172;53.022;7.012;2022-10-30T17:37:20;15.00;99.90
54260;DHT22;40172;53.022;7.012;2022-10-30T17:39:46;15.10;99.90
54260;DHT22;40172;53.022;7.012;2022-10-30T17:42:11;14.80;99.90
54260;DHT22;40172;53.022;7.012;2022-10-30T17:44:37;14.70;99.90
54260;DHT22;40172;53.022;7.012;2022-10-30T17:47:17;14.70;99.90
54260;DHT22;40172;53.022;7.012;2022-10-30T17:49:44;14.70;99.90
54260;DHT22;40172;53.022;7.012;2022-10-30T17:52:15;14.70;99.90
54260;DHT22;40172;53.022;7.012;2022-10-30T17:54:41;14.70;99.90
54260;DHT22;40172;53.022;7.012;2022-10-30T17:57:11;14.80;99.90
54260;DHT22;40172;53.022;7.012;2022-10-30T17:59:37;14.80;99.90
54260;DHT22;40172;53.022;7.012;2022-10-30T18:04:39;14.90;99.90